createdAt,value
2022-11-13T00:01:07.124Z,100.00
2022-11-13T00:03:34.063Z,100.00
2022-11-13T00:06:02.024Z,100.00
2022-11-13T00:08:29.163Z,100.00
2022-11-13T00:11:29.851Z,100.00
2022-11-13T00:13:56.553Z,100.00
2022-11-13T00:16:23.491Z,100.00
2022-11-13T00:18:50.388Z,100.00
2022-11-13T00:21:18.255Z,100.00
2022-11-13T00:23:45.636Z,100.00
2022-11-13T00:26:15.200Z,100.00
2022-11-13T00:28:43.021Z,100.00
2022-11-13T00:31:11.814Z,100.00
2022-11-13T00:34:05.251Z,100.00
2022-11-13T00:36:27.415Z,100.00
2022-11-13T00:38:55.087Z,100.00
2022-11-13T00:41:22.992Z,100.00
2022-11-13T00:43:50.187Z,100.00
2022-11-13T00:46:16.852Z,100.00
2022-11-13T00:48:43.847Z,100.00
2022-11-13T00:51:11.462Z,100.00
2022-11-13T00:53:38.130Z,100.00
2022-11-13T00:56:05.149Z,100.00
2022-11-13T00:58:32.487Z,100.00
2022-11-13T01:01:13.235Z,100.00
2022-11-13T01:03:40.624Z,100.00
2022-11-13T01:06:22.530Z,100.00
2022-11-13T01:08:49.896Z,100.00
2022-11-13T01:11:19.610Z,100.00
2022-11-13T01:13:49.015Z,100.00
2022-11-13T01:16:18.766Z,100.00
2022-11-13T01:18:45.612Z,100.00
2022-11-13T01:21:18.897Z,100.00
2022-11-13T01:23:45.861Z,100.00
2022-11-13T01:26:18.554Z,100.00
2022-11-13T01:28:46.260Z,100.00
2022-11-13T01:31:25.164Z,100.00
2022-11-13T01:33:52.505Z,100.00
2022-11-13T01:36:22.204Z,100.00
2022-11-13T01:38:49.837Z,100.00
2022-11-13T01:41:29.185Z,100.00
2022-11-13T01:43:57.545Z,100.00
2022-11-13T01:46:37.579Z,100.00
2022-11-13T01:49:21.586Z,100.00
2022-11-13T01:52:05.607Z,100.00
2022-11-13T01:54:37.428Z,100.00
2022-11-13T01:57:05.328Z,100.00
2022-11-13T01:59:40.485Z,100.00
2022-11-13T02:02:07.647Z,100.00
2022-11-13T02:04:34.862Z,100.00
2022-11-13T02:07:05.842Z,100.00
2022-11-13T02:09:38.131Z,100.00
2022-11-13T02:12:11.673Z,100.00
2022-11-13T02:14:42.264Z,100.00
2022-11-13T02:17:13.447Z,100.00
2022-11-13T02:19:45.046Z,100.00
2022-11-13T02:22:30.854Z,100.00
2022-11-13T02:25:00.119Z,100.00
2022-11-13T02:27:29.826Z,100.00
2022-11-13T02:29:56.508Z,100.00
2022-11-13T02:32:23.450Z,100.00
2022-11-13T02:34:50.402Z,100.00
2022-11-13T02:37:17.090Z,100.00
2022-11-13T02:39:44.053Z,100.00
2022-11-13T02:42:11.513Z,100.00
2022-11-13T02:44:38.973Z,100.00
2022-11-13T02:47:06.096Z,100.00
2022-11-13T02:49:32.750Z,100.00
2022-11-13T02:51:59.474Z,100.00
2022-11-13T02:54:26.495Z,100.00
2022-11-13T02:56:53.175Z,100.00
2022-11-13T02:59:19.841Z,100.00
2022-11-13T03:01:48.008Z,100.00
2022-11-13T03:04:14.807Z,100.00
2022-11-13T03:06:41.533Z,100.00
2022-11-13T03:09:08.558Z,100.00
2022-11-13T03:11:35.269Z,100.00
2022-11-13T03:14:02.051Z,100.00
2022-11-13T03:16:28.977Z,100.00
2022-11-13T03:18:56.712Z,100.00
2022-11-13T03:21:24.353Z,100.00
2022-11-13T03:23:51.279Z,100.00
2022-11-13T03:26:17.971Z,100.00
2022-11-13T03:28:45.214Z,100.00
2022-11-13T03:31:12.723Z,100.00
2022-11-13T03:33:39.496Z,100.00
2022-11-13T03:36:07.232Z,100.00
2022-11-13T03:38:34.541Z,100.00
2022-11-13T03:41:01.217Z,100.00
2022-11-13T03:43:28.177Z,100.00
2022-11-13T03:45:55.007Z,100.00
2022-11-13T03:48:21.862Z,100.00
2022-11-13T03:50:51.874Z,100.00
2022-11-13T03:53:18.519Z,100.00
2022-11-13T03:55:45.445Z,100.00
2022-11-13T03:58:12.414Z,100.00
2022-11-13T04:00:41.107Z,100.00
2022-11-13T04:03:07.998Z,100.00
2022-11-13T04:05:34.999Z,100.00
2022-11-13T04:08:01.996Z,100.00
2022-11-13T04:10:29.233Z,100.00
2022-11-13T04:12:55.909Z,100.00
2022-11-13T04:15:22.979Z,100.00
2022-11-13T04:17:50.008Z,100.00
2022-11-13T04:20:17.559Z,100.00
2022-11-13T04:22:44.234Z,100.00
2022-11-13T04:25:10.958Z,100.00
2022-11-13T04:27:37.953Z,100.00
2022-11-13T04:30:05.659Z,100.00
2022-11-13T04:32:33.083Z,100.00
2022-11-13T04:35:00.091Z,100.00
2022-11-13T04:37:26.762Z,100.00
2022-11-13T04:39:53.492Z,100.00
2022-11-13T04:42:39.212Z,100.00
2022-11-13T04:45:06.342Z,100.00
2022-11-13T04:47:33.279Z,100.00
2022-11-13T04:50:00.004Z,100.00
2022-11-13T04:52:28.513Z,100.00
2022-11-13T04:54:55.591Z,100.00
2022-11-13T04:57:22.258Z,100.00
2022-11-13T04:59:48.981Z,100.00
2022-11-13T05:02:16.177Z,100.00
2022-11-13T05:04:42.902Z,100.00
2022-11-13T05:07:09.573Z,100.00
2022-11-13T05:09:36.594Z,100.00
2022-11-13T05:12:07.876Z,100.00
2022-11-13T05:14:39.123Z,100.00
2022-11-13T05:17:08.958Z,100.00
2022-11-13T05:19:35.747Z,100.00
2022-11-13T05:22:03.102Z,100.00
2022-11-13T05:24:30.325Z,100.00
2022-11-13T05:26:57.163Z,100.00
2022-11-13T05:29:24.293Z,100.00
2022-11-13T05:31:51.099Z,100.00
2022-11-13T05:34:17.744Z,100.00
2022-11-13T05:36:44.667Z,100.00
2022-11-13T05:39:11.521Z,100.00
2022-11-13T05:41:38.282Z,100.00
2022-11-13T05:44:05.242Z,100.00
2022-11-13T05:46:32.747Z,100.00
2022-11-13T05:49:01.507Z,100.00
2022-11-13T05:51:31.521Z,100.00
2022-11-13T05:53:58.834Z,100.00
2022-11-13T05:56:31.716Z,100.00
2022-11-13T05:59:00.066Z,100.00
2022-11-13T06:01:32.968Z,100.00
2022-11-13T06:04:01.041Z,100.00
2022-11-13T06:06:30.151Z,100.00
2022-11-13T06:08:58.506Z,100.00
2022-11-13T06:11:27.794Z,100.00
2022-11-13T06:13:55.630Z,100.00
2022-11-13T06:16:26.002Z,100.00
2022-11-13T06:19:00.642Z,100.00
2022-11-13T06:21:29.745Z,100.00
2022-11-13T06:23:58.223Z,100.00
2022-11-13T06:26:27.809Z,100.00
2022-11-13T06:28:55.217Z,100.00
2022-11-13T06:31:24.564Z,100.00
2022-11-13T06:33:51.711Z,100.00
2022-11-13T06:36:25.792Z,100.00
2022-11-13T06:38:53.029Z,100.00
2022-11-13T06:41:22.488Z,100.00
2022-11-13T06:43:49.655Z,100.00
2022-11-13T06:46:19.160Z,100.00
2022-11-13T06:48:47.209Z,100.00
2022-11-13T06:51:19.389Z,100.00
2022-11-13T06:53:49.113Z,100.00
2022-11-13T06:56:17.444Z,100.00
2022-11-13T06:58:44.194Z,100.00
2022-11-13T07:01:17.066Z,100.00
2022-11-13T07:03:44.515Z,100.00
2022-11-13T07:06:14.606Z,100.00
2022-11-13T07:08:47.006Z,100.00
2022-11-13T07:11:16.452Z,100.00
2022-11-13T07:13:43.778Z,100.00
2022-11-13T07:16:18.143Z,100.00
2022-11-13T07:18:54.654Z,100.00
2022-11-13T07:21:22.296Z,100.00
2022-11-13T07:23:50.245Z,100.00
2022-11-13T07:26:18.063Z,100.00
2022-11-13T07:28:45.540Z,100.00
2022-11-13T07:31:14.104Z,100.00
2022-11-13T07:33:40.986Z,100.00
2022-11-13T07:36:11.148Z,100.00
2022-11-13T07:38:37.821Z,100.00
2022-11-13T07:41:05.049Z,100.00
2022-11-13T07:43:31.870Z,100.00
2022-11-13T07:45:59.649Z,100.00
2022-11-13T07:48:28.119Z,100.00
2022-11-13T07:50:55.819Z,100.00
2022-11-13T07:53:23.130Z,100.00
2022-11-13T07:55:50.291Z,100.00
2022-11-13T07:58:17.100Z,100.00
2022-11-13T08:00:44.460Z,100.00
2022-11-13T08:03:14.365Z,100.00
2022-11-13T08:05:42.453Z,100.00
2022-11-13T08:08:12.582Z,100.00
2022-11-13T08:10:39.593Z,100.00
2022-11-13T08:13:08.511Z,100.00
2022-11-13T08:15:37.205Z,100.00
2022-11-13T08:18:04.900Z,100.00
2022-11-13T08:20:32.290Z,100.00
2022-11-13T08:23:01.032Z,100.00
2022-11-13T08:25:29.548Z,100.00
2022-11-13T08:27:56.783Z,100.00
2022-11-13T08:30:25.432Z,100.00
2022-11-13T08:32:52.627Z,100.00
2022-11-13T08:35:22.054Z,100.00
2022-11-13T08:37:50.946Z,100.00
2022-11-13T08:40:17.986Z,100.00
2022-11-13T08:42:44.649Z,100.00
2022-11-13T08:45:12.167Z,100.00
2022-11-13T08:47:39.038Z,100.00
2022-11-13T08:50:06.570Z,100.00
2022-11-13T08:52:33.295Z,100.00
2022-11-13T08:55:00.317Z,100.00
2022-11-13T08:57:27.050Z,100.00
2022-11-13T08:59:54.064Z,100.00
2022-11-13T09:02:20.773Z,100.00
2022-11-13T09:04:47.769Z,100.00
2022-11-13T09:07:14.527Z,100.00
2022-11-13T09:09:41.260Z,100.00
2022-11-13T09:12:08.299Z,100.00
2022-11-13T09:14:36.577Z,100.00
2022-11-13T09:17:04.029Z,100.00
2022-11-13T09:19:30.792Z,100.00
2022-11-13T09:21:58.097Z,100.00
2022-11-13T09:24:24.741Z,100.00
2022-11-13T09:26:51.402Z,100.00
2022-11-13T09:29:18.580Z,100.00
2022-11-13T09:31:46.210Z,100.00
2022-11-13T09:34:12.883Z,100.00
2022-11-13T09:36:40.048Z,100.00
2022-11-13T09:39:06.863Z,100.00
2022-11-13T09:41:44.283Z,100.00
2022-11-13T09:44:45.044Z,100.00
2022-11-13T09:47:18.223Z,100.00
2022-11-13T09:49:49.434Z,100.00
2022-11-13T09:52:21.449Z,100.00
2022-11-13T09:54:48.397Z,100.00
2022-11-13T09:57:25.742Z,100.00
2022-11-13T10:00:04.582Z,100.00
2022-11-13T10:02:50.408Z,100.00
2022-11-13T10:05:36.729Z,100.00
2022-11-13T10:08:24.811Z,100.00
2022-11-13T10:11:01.782Z,100.00
2022-11-13T10:13:40.051Z,100.00
2022-11-13T10:16:13.902Z,71.33
2022-11-13T10:18:41.687Z,61.00
2022-11-13T10:21:28.023Z,56.38
2022-11-13T10:23:57.304Z,53.48
2022-11-13T10:26:27.490Z,51.97
2022-11-13T10:29:19.872Z,52.40
2022-11-13T10:31:49.136Z,47.80
2022-11-13T10:34:18.014Z,48.35
2022-11-13T10:36:51.349Z,50.52
2022-11-13T10:39:18.349Z,49.16
2022-11-13T10:41:50.284Z,48.77
2022-11-13T10:44:27.182Z,48.12
2022-11-13T10:47:19.839Z,49.83
2022-11-13T10:50:12.742Z,49.39
2022-11-13T10:52:49.177Z,49.56
2022-11-13T10:55:34.155Z,49.88
2022-11-13T10:58:04.187Z,50.36
2022-11-13T11:00:34.037Z,50.98
2022-11-13T11:03:00.999Z,51.75
2022-11-13T11:05:28.923Z,52.15
2022-11-13T11:07:57.535Z,53.58
2022-11-13T11:10:35.980Z,54.08
2022-11-13T11:13:11.083Z,54.24
2022-11-13T11:15:40.801Z,53.86
2022-11-13T11:18:24.330Z,53.45
2022-11-13T11:20:55.107Z,53.25
2022-11-13T11:23:41.296Z,53.68
2022-11-13T11:26:14.061Z,53.63
2022-11-13T11:28:53.909Z,53.26
2022-11-13T11:31:23.578Z,54.80
2022-11-13T11:34:11.362Z,54.75
2022-11-13T11:37:03.041Z,55.78
2022-11-13T11:39:38.021Z,55.37
2022-11-13T11:42:18.462Z,55.81
2022-11-13T11:45:05.243Z,56.68
2022-11-13T11:47:34.063Z,57.08
2022-11-13T11:50:01.720Z,57.21
2022-11-13T11:52:50.094Z,57.26
2022-11-13T11:55:34.496Z,58.60
2022-11-13T11:58:20.035Z,60.13
2022-11-13T12:01:11.376Z,59.88
2022-11-13T12:03:38.260Z,60.45
2022-11-13T12:06:15.655Z,59.97
2022-11-13T12:08:55.238Z,58.76
2022-11-13T12:11:28.557Z,58.86
2022-11-13T12:14:08.547Z,58.09
2022-11-13T12:16:58.539Z,59.16
2022-11-13T12:19:25.495Z,59.91
2022-11-13T12:22:29.626Z,62.62
2022-11-13T12:25:17.782Z,63.06
2022-11-13T12:28:29.623Z,63.66
2022-11-13T12:31:18.690Z,65.09
2022-11-13T12:34:10.539Z,64.12
2022-11-13T12:36:38.060Z,64.28
2022-11-13T12:39:40.181Z,65.54
2022-11-13T12:42:39.072Z,64.82
2022-11-13T12:45:34.457Z,66.54
2022-11-13T12:48:21.337Z,67.18
2022-11-13T12:51:02.697Z,65.51
2022-11-13T12:53:43.220Z,64.09
2022-11-13T12:56:15.971Z,65.29
2022-11-13T12:59:15.573Z,65.07
2022-11-13T13:02:05.975Z,66.14
2022-11-13T13:05:10.624Z,65.48
2022-11-13T13:07:51.111Z,66.31
2022-11-13T13:10:18.022Z,66.00
2022-11-13T13:13:12.376Z,67.57
2022-11-13T13:15:43.732Z,68.85
2022-11-13T13:18:23.994Z,68.04
2022-11-13T13:20:56.958Z,68.50
2022-11-13T13:23:29.329Z,68.46
2022-11-13T13:26:15.013Z,67.72
2022-11-13T13:28:48.074Z,68.99
2022-11-13T13:31:45.674Z,68.48
2022-11-13T13:34:36.529Z,65.19
2022-11-13T13:37:25.290Z,64.83
2022-11-13T13:40:10.369Z,65.76
2022-11-13T13:43:14.355Z,66.33
2022-11-13T13:45:55.410Z,66.43
2022-11-13T13:48:27.301Z,66.79
2022-11-13T13:50:55.396Z,66.75
2022-11-13T13:53:29.600Z,66.39
2022-11-13T13:55:57.781Z,65.34
2022-11-13T13:58:34.428Z,65.77
2022-11-13T14:01:18.263Z,65.03
2022-11-13T14:03:46.636Z,64.88
2022-11-13T14:06:24.166Z,65.60
2022-11-13T14:08:51.150Z,65.50
2022-11-13T14:11:20.658Z,65.24
2022-11-13T14:13:47.387Z,65.88
2022-11-13T14:16:14.594Z,66.42
2022-11-13T14:18:41.907Z,67.16
2022-11-13T14:21:16.996Z,68.52
2022-11-13T14:23:47.345Z,69.08
2022-11-13T14:26:14.774Z,69.14
2022-11-13T14:28:56.457Z,68.90
2022-11-13T14:31:35.269Z,69.47
2022-11-13T14:34:14.304Z,69.49
2022-11-13T14:36:41.645Z,69.95
2022-11-13T14:39:22.014Z,70.55
2022-11-13T14:41:55.904Z,71.59
2022-11-13T14:44:32.255Z,73.01
2022-11-13T14:47:02.682Z,75.38
2022-11-13T14:49:35.416Z,77.88
2022-11-13T14:52:02.859Z,80.77
2022-11-13T14:55:00.182Z,85.54
2022-11-13T14:57:22.591Z,91.02
2022-11-13T14:59:49.295Z,95.88
2022-11-13T15:02:16.279Z,98.11
2022-11-13T15:04:42.989Z,93.72
2022-11-13T15:07:24.572Z,89.12
2022-11-13T15:09:51.453Z,87.87
2022-11-13T15:12:18.455Z,87.94
2022-11-13T15:14:45.433Z,89.05
2022-11-13T15:17:16.361Z,90.28
2022-11-13T15:19:43.510Z,92.20
2022-11-13T15:22:30.025Z,93.97
2022-11-13T15:24:56.708Z,95.30
2022-11-13T15:27:23.691Z,96.31
2022-11-13T15:29:50.380Z,97.73
2022-11-13T15:32:17.357Z,100.00
2022-11-13T15:34:44.148Z,100.00
2022-11-13T15:37:16.272Z,100.00
2022-11-13T15:39:43.039Z,100.00
2022-11-13T15:42:15.474Z,100.00
2022-11-13T15:44:42.324Z,100.00
2022-11-13T15:47:27.777Z,100.00
2022-11-13T15:50:13.868Z,100.00
2022-11-13T15:52:45.853Z,100.00
2022-11-13T15:55:26.712Z,100.00
2022-11-13T15:57:54.737Z,100.00
2022-11-13T16:00:26.793Z,100.00
2022-11-13T16:02:56.154Z,100.00
2022-11-13T16:05:29.301Z,100.00
2022-11-13T16:07:57.060Z,100.00
2022-11-13T16:10:25.455Z,100.00
2022-11-13T16:12:53.067Z,100.00
2022-11-13T16:15:20.087Z,100.00
2022-11-13T16:17:50.738Z,100.00
2022-11-13T16:20:18.267Z,100.00
2022-11-13T16:22:45.880Z,100.00
2022-11-13T16:25:15.539Z,100.00
2022-11-13T16:27:42.821Z,100.00
2022-11-13T16:30:20.673Z,100.00
2022-11-13T16:32:48.049Z,100.00
2022-11-13T16:35:19.999Z,100.00
2022-11-13T16:37:47.195Z,100.00
2022-11-13T16:40:24.472Z,100.00
2022-11-13T16:42:52.001Z,100.00
2022-11-13T16:45:19.982Z,100.00
2022-11-13T16:47:47.490Z,100.00
2022-11-13T16:50:27.268Z,100.00
2022-11-13T16:52:54.278Z,100.00
2022-11-13T16:55:20.991Z,100.00
2022-11-13T16:57:48.302Z,100.00
2022-11-13T17:00:17.323Z,100.00
2022-11-13T17:02:44.947Z,100.00
2022-11-13T17:05:16.042Z,100.00
2022-11-13T17:07:43.080Z,100.00
2022-11-13T17:10:31.347Z,100.00
2022-11-13T17:13:00.387Z,100.00
2022-11-13T17:15:27.255Z,100.00
2022-11-13T17:17:57.371Z,100.00
2022-11-13T17:20:24.561Z,100.00
2022-11-13T17:22:51.529Z,100.00
2022-11-13T17:25:20.512Z,100.00
2022-11-13T17:27:47.487Z,100.00
2022-11-13T17:30:14.737Z,100.00
2022-11-13T17:32:41.789Z,100.00
2022-11-13T17:35:11.337Z,100.00
2022-11-13T17:37:39.501Z,100.00
2022-11-13T17:40:06.936Z,100.00
2022-11-13T17:42:33.928Z,100.00
2022-11-13T17:45:00.630Z,100.00
2022-11-13T17:47:27.671Z,100.00
2022-11-13T17:49:56.026Z,100.00
2022-11-13T17:52:23.035Z,100.00
2022-11-13T17:54:50.033Z,100.00
2022-11-13T17:57:17.114Z,100.00
2022-11-13T17:59:43.743Z,100.00
2022-11-13T18:02:13.776Z,100.00
2022-11-13T18:04:40.478Z,100.00
2022-11-13T18:07:07.478Z,100.00
2022-11-13T18:09:35.240Z,100.00
2022-11-13T18:12:03.328Z,100.00
2022-11-13T18:14:29.985Z,100.00
2022-11-13T18:16:56.938Z,100.00
2022-11-13T18:19:23.686Z,100.00
2022-11-13T18:21:50.714Z,100.00
2022-11-13T18:24:18.716Z,100.00
2022-11-13T18:26:46.206Z,100.00
2022-11-13T18:29:12.903Z,100.00
2022-11-13T18:31:39.872Z,100.00
2022-11-13T18:34:08.531Z,100.00
2022-11-13T18:36:35.876Z,100.00
2022-11-13T18:39:03.388Z,100.00
2022-11-13T18:41:30.922Z,100.00
2022-11-13T18:43:57.773Z,100.00
2022-11-13T18:46:24.722Z,100.00
2022-11-13T18:48:51.549Z,100.00
2022-11-13T18:51:21.826Z,100.00
2022-11-13T18:53:49.817Z,100.00
2022-11-13T18:56:22.738Z,100.00
2022-11-13T18:58:50.991Z,100.00
2022-11-13T19:01:22.595Z,100.00
2022-11-13T19:04:16.045Z,100.00
2022-11-13T19:06:39.210Z,100.00
2022-11-13T19:09:10.574Z,100.00
2022-11-13T19:11:37.548Z,100.00
2022-11-13T19:14:04.575Z,100.00
2022-11-13T19:16:45.333Z,100.00
2022-11-13T19:19:18.211Z,100.00
2022-11-13T19:21:46.170Z,100.00
2022-11-13T19:24:14.636Z,100.00
2022-11-13T19:26:42.552Z,100.00
2022-11-13T19:29:10.574Z,100.00
2022-11-13T19:31:37.608Z,100.00
2022-11-13T19:34:07.170Z,100.00
2022-11-13T19:36:35.487Z,100.00
2022-11-13T19:39:02.388Z,100.00
2022-11-13T19:41:30.150Z,100.00
2022-11-13T19:44:00.243Z,100.00
2022-11-13T19:46:28.450Z,100.00
2022-11-13T19:48:55.249Z,100.00
2022-11-13T19:51:24.545Z,100.00
2022-11-13T19:53:56.719Z,100.00
2022-11-13T19:56:25.158Z,100.00
2022-11-13T19:58:52.769Z,100.00
2022-11-13T20:01:23.056Z,100.00
2022-11-13T20:03:58.782Z,100.00
2022-11-13T20:06:26.797Z,100.00
2022-11-13T20:08:53.639Z,100.00
2022-11-13T20:11:20.597Z,100.00
2022-11-13T20:13:47.334Z,100.00
2022-11-13T20:16:16.100Z,100.00
2022-11-13T20:18:44.342Z,100.00
2022-11-13T20:21:11.336Z,100.00
2022-11-13T20:23:38.843Z,100.00
2022-11-13T20:26:08.506Z,100.00
2022-11-13T20:28:35.168Z,100.00
2022-11-13T20:31:11.995Z,100.00
2022-11-13T20:33:38.666Z,100.00
2022-11-13T20:36:05.938Z,100.00
2022-11-13T20:38:32.756Z,100.00
2022-11-13T20:41:05.998Z,100.00
2022-11-13T20:43:33.078Z,100.00
2022-11-13T20:46:09.974Z,100.00
2022-11-13T20:48:37.094Z,100.00
2022-11-13T20:51:08.833Z,100.00
2022-11-13T20:53:35.692Z,100.00
2022-11-13T20:56:02.673Z,100.00
2022-11-13T20:58:30.538Z,100.00
2022-11-13T21:01:15.104Z,100.00
2022-11-13T21:03:43.262Z,100.00
2022-11-13T21:06:15.845Z,100.00
2022-11-13T21:08:43.270Z,100.00
2022-11-13T21:11:16.054Z,100.00
2022-11-13T21:13:42.713Z,100.00
2022-11-13T21:16:10.064Z,100.00
2022-11-13T21:18:37.323Z,100.00
2022-11-13T21:21:14.603Z,100.00
2022-11-13T21:23:41.512Z,100.00
2022-11-13T21:26:09.781Z,100.00
2022-11-13T21:28:37.412Z,100.00
2022-11-13T21:31:12.516Z,100.00
2022-11-13T21:33:41.062Z,100.00
2022-11-13T21:36:12.325Z,100.00
